Time;durP1;ratioP1;P1;durP2;ratioP2;P2;SDS_P1;SDS_P2;PMS_P1;PMS_P2;Temp;Humidity;BMP_temperature;BMP_pressure;BME280_temperature;BME280_humidity;BME280_pressure;Samples;Min_cycle;Max_cycle;Signal;HPM_P1;HPM_P2
2023/12/07 00:01:04;;;;;;;13.43;10.23;;;3.30;99.90;;;;;;5016247;28;20202;-74
2023/12/07 00:03:30;;;;;;;14.00;9.50;;;3.40;99.90;;;;;;5047908;22;20225;-70
2023/12/07 00:05:56;;;;;;;14.17;11.20;;;3.40;99.90;;;;;;5033329;28;20166;-71
2023/12/07 00:08:21;;;;;;;12.60;9.93;;;3.50;99.90;;;;;;5031388;28;20428;-71
2023/12/07 00:10:47;;;;;;;10.77;8.40;;;3.40;99.90;;;;;;5031151;28;20185;-70
2023/12/07 00:13:12;;;;;;;12.20;10.17;;;3.30;99.90;;;;;;5041657;28;20329;-70
2023/12/07 00:15:38;;;;;;;9.30;8.07;;;3.30;99.90;;;;;;5032471;28;20231;-70
2023/12/07 00:18:04;;;;;;;9.13;7.60;;;3.30;99.90;;;;;;5050256;28;20189;-70
2023/12/07 00:20:30;;;;;;;9.80;8.40;;;3.30;99.90;;;;;;5030616;28;20174;-70
2023/12/07 00:22:55;;;;;;;15.60;10.73;;;3.30;99.90;;;;;;5045821;28;20174;-70
2023/12/07 00:25:21;;;;;;;10.70;9.60;;;3.30;99.90;;;;;;5030083;28;20547;-70
2023/12/07 00:27:47;;;;;;;10.07;7.60;;;3.30;99.90;;;;;;5040764;28;20781;-70
2023/12/07 00:30:13;;;;;;;10.60;9.13;;;3.20;99.90;;;;;;5032328;28;20448;-70
2023/12/07 00:32:40;;;;;;;8.33;7.43;;;3.20;99.90;;;;;;5032636;28;20499;-69
2023/12/07 00:35:07;;;;;;;11.60;9.77;;;3.20;99.90;;;;;;5032571;28;20186;-70
2023/12/07 00:37:33;;;;;;;12.17;9.00;;;3.10;99.90;;;;;;5031933;28;20492;-70
2023/12/07 00:39:58;;;;;;;10.77;8.67;;;3.20;99.90;;;;;;5028733;28;20479;-69
2023/12/07 00:42:24;;;;;;;11.10;8.50;;;3.30;99.90;;;;;;5035444;28;20830;-70
2023/12/07 00:44:49;;;;;;;8.13;7.33;;;3.30;99.90;;;;;;5036649;28;20190;-70
2023/12/07 00:47:15;;;;;;;12.33;9.60;;;3.40;99.90;;;;;;5030630;28;20280;-70
2023/12/07 00:49:40;;;;;;;9.83;8.60;;;3.30;99.90;;;;;;5032557;28;20178;-70
2023/12/07 00:52:06;;;;;;;11.40;8.53;;;3.30;99.90;;;;;;5033037;28;20293;-70
2023/12/07 00:54:32;;;;;;;8.90;8.00;;;3.30;99.90;;;;;;5034984;28;20251;-70
2023/12/07 00:56:57;;;;;;;11.23;8.07;;;3.40;99.90;;;;;;5035005;28;20420;-70
2023/12/07 00:59:23;;;;;;;9.40;8.50;;;3.40;99.90;;;;;;5031500;28;20178;-70
2023/12/07 01:01:49;;;;;;;13.63;8.90;;;3.40;99.90;;;;;;5029193;28;20182;-69
2023/12/07 01:04:14;;;;;;;9.57;8.57;;;3.40;99.90;;;;;;5038881;28;20243;-69
2023/12/07 01:06:40;;;;;;;11.50;9.13;;;3.30;99.90;;;;;;5032478;28;20177;-70
2023/12/07 01:09:05;;;;;;;11.83;9.10;;;3.30;99.90;;;;;;5033229;28;20265;-70
2023/12/07 01:11:31;;;;;;;13.57;8.90;;;3.20;99.90;;;;;;5031465;28;20178;-69
2023/12/07 01:13:56;;;;;;;13.93;9.97;;;3.10;99.90;;;;;;5040386;28;20204;-70
2023/12/07 01:16:22;;;;;;;8.97;8.00;;;3.10;99.90;;;;;;5049931;28;20181;-70
2023/12/07 01:18:47;;;;;;;9.77;8.37;;;3.10;99.90;;;;;;5034889;28;20582;-70
2023/12/07 01:21:13;;;;;;;9.73;8.03;;;3.10;99.90;;;;;;5037644;28;20652;-70
2023/12/07 01:23:38;;;;;;;8.23;6.63;;;3.00;99.90;;;;;;5035689;28;20232;-70
2023/12/07 01:26:04;;;;;;;10.57;8.40;;;3.00;99.90;;;;;;5048092;28;20194;-70
2023/12/07 01:28:29;;;;;;;10.57;9.13;;;3.00;99.90;;;;;;5040493;28;20182;-70
2023/12/07 01:30:58;;;;;;;9.40;7.33;;;3.00;99.90;;;;;;5030046;28;20185;-69
2023/12/07 01:33:23;;;;;;;9.43;8.43;;;3.00;99.90;;;;;;5043631;28;20209;-69
2023/12/07 01:35:49;;;;;;;11.50;7.60;;;3.10;99.90;;;;;;5045968;28;20520;-70
2023/12/07 01:38:14;;;;;;;9.20;8.20;;;3.10;99.90;;;;;;5031079;28;20546;-70
2023/12/07 01:40:40;;;;;;;7.87;6.60;;;3.20;99.90;;;;;;5031026;28;20221;-70
2023/12/07 01:43:05;;;;;;;9.47;7.60;;;3.10;99.90;;;;;;5038510;28;20209;-70
2023/12/07 01:45:31;;;;;;;8.50;7.57;;;3.10;99.90;;;;;;5035871;28;20177;-70
2023/12/07 01:47:58;;;;;;;12.90;7.20;;;3.10;99.90;;;;;;5042557;28;20189;-70
2023/12/07 01:50:24;;;;;;;9.60;8.40;;;3.00;99.90;;;;;;5031268;28;20184;-70
2023/12/07 01:52:54;;;;;;;11.97;7.87;;;3.00;99.90;;;;;;5047918;28;20948;-70
2023/12/07 01:55:21;;;;;;;10.83;7.77;;;3.10;99.90;;;;;;5047084;28;20162;-70
2023/12/07 01:57:49;;;;;;;10.93;8.17;;;3.00;99.90;;;;;;5055549;28;20420;-70
2023/12/07 02:00:16;;;;;;;10.00;7.47;;;3.00;99.90;;;;;;5041421;28;20433;-70
2023/12/07 02:02:43;;;;;;;12.67;7.80;;;2.90;99.90;;;;;;5032942;28;20526;-69
2023/12/07 02:05:08;;;;;;;8.70;7.37;;;2.80;99.90;;;;;;5034301;28;20466;-70
2023/12/07 02:07:34;;;;;;;9.40;8.50;;;2.80;99.90;;;;;;5030248;28;20437;-69
2023/12/07 02:10:00;;;;;;;9.33;7.67;;;2.80;99.90;;;;;;5033809;28;20269;-70
2023/12/07 02:12:29;;;;;;;10.13;8.33;;;2.70;99.90;;;;;;5035179;28;20468;-70
2023/12/07 02:14:55;;;;;;;8.23;6.80;;;2.70;99.90;;;;;;5033803;28;20206;-70
2023/12/07 02:17:49;;;;;;;9.00;7.40;;;2.70;99.90;;;;;;5039502;28;20827;-70
2023/12/07 02:20:26;;;;;;;9.70;7.80;;;2.60;99.90;;;;;;5038464;28;20437;-69
2023/12/07 02:22:56;;;;;;;9.50;7.10;;;2.50;99.90;;;;;;5025367;28;20436;-70
2023/12/07 02:25:31;;;;;;;10.93;8.80;;;2.40;99.90;;;;;;5035107;28;20437;-70
2023/12/07 02:27:57;;;;;;;12.93;8.60;;;2.40;99.90;;;;;;5025242;28;20428;-70
2023/12/07 02:30:23;;;;;;;8.57;6.90;;;2.30;99.90;;;;;;5033905;28;20440;-69
2023/12/07 02:32:48;;;;;;;8.27;7.47;;;2.20;99.90;;;;;;5041218;28;20255;-69
2023/12/07 02:35:15;;;;;;;11.93;8.90;;;2.20;99.90;;;;;;5022253;28;20186;-70
2023/12/07 02:37:47;;;;;;;8.83;6.90;;;2.20;99.90;;;;;;5023292;28;20570;-70
2023/12/07 02:40:17;;;;;;;9.30;7.53;;;2.20;99.90;;;;;;5024844;28;20429;-69
2023/12/07 02:42:43;;;;;;;8.40;6.43;;;2.10;99.90;;;;;;5041446;28;20487;-70
2023/12/07 02:45:10;;;;;;;11.23;7.83;;;2.10;99.90;;;;;;5041333;28;20467;-70
2023/12/07 02:47:36;;;;;;;15.07;10.40;;;2.10;99.90;;;;;;5034581;28;20190;-70
2023/12/07 02:50:06;;;;;;;10.47;9.13;;;2.10;99.90;;;;;;5026093;28;20438;-70
2023/12/07 02:52:33;;;;;;;16.13;10.53;;;2.10;99.90;;;;;;5019288;28;20543;-69
2023/12/07 02:54:58;;;;;;;17.10;10.20;;;2.00;99.90;;;;;;5034494;28;20452;-69
2023/12/07 02:57:24;;;;;;;15.10;10.07;;;2.00;99.90;;;;;;5034458;28;20781;-70
2023/12/07 02:59:49;;;;;;;11.67;10.47;;;2.00;99.90;;;;;;5033802;28;20182;-70
2023/12/07 03:02:15;;;;;;;14.50;12.60;;;2.00;99.90;;;;;;5034938;28;20235;-70
2023/12/07 03:04:40;;;;;;;17.63;12.00;;;2.00;99.90;;;;;;5021870;28;20221;-69
2023/12/07 03:07:06;;;;;;;11.87;8.80;;;1.90;99.90;;;;;;5031677;28;20182;-70
2023/12/07 03:09:31;;;;;;;14.17;10.50;;;1.90;99.90;;;;;;5028460;28;20179;-71
2023/12/07 03:11:57;;;;;;;16.40;11.57;;;1.80;99.90;;;;;;5034747;28;20679;-70
2023/12/07 03:14:22;;;;;;;17.83;13.60;;;1.80;99.90;;;;;;5033442;28;20194;-70
2023/12/07 03:16:48;;;;;;;17.20;11.77;;;1.80;99.90;;;;;;5033675;28;20178;-70
2023/12/07 03:19:13;;;;;;;13.43;10.90;;;1.80;99.90;;;;;;5033918;28;20256;-70
2023/12/07 03:21:40;;;;;;;16.80;12.20;;;1.80;99.90;;;;;;5032673;28;20178;-69
2023/12/07 03:24:09;;;;;;;14.13;11.03;;;1.90;99.90;;;;;;5034060;28;20198;-70
2023/12/07 03:26:35;;;;;;;14.00;11.20;;;1.80;99.90;;;;;;5032077;28;20516;-70
2023/12/07 03:29:01;;;;;;;12.20;9.93;;;1.80;99.90;;;;;;5033362;28;21022;-69
2023/12/07 03:31:27;;;;;;;12.87;11.00;;;1.80;99.90;;;;;;5032194;28;20586;-70
2023/12/07 03:33:54;;;;;;;18.73;11.50;;;1.80;99.90;;;;;;5033023;28;20667;-69
2023/12/07 03:36:19;;;;;;;13.07;9.87;;;1.70;99.90;;;;;;5028050;28;20430;-70
2023/12/07 03:38:45;;;;;;;11.80;10.33;;;1.70;99.90;;;;;;5033577;28;20854;-69
2023/12/07 03:41:11;;;;;;;11.03;8.23;;;1.60;99.90;;;;;;5033230;28;20174;-70
2023/12/07 03:43:36;;;;;;;12.47;9.70;;;1.60;99.90;;;;;;5033673;28;20255;-70
2023/12/07 03:46:05;;;;;;;13.47;10.20;;;1.70;99.90;;;;;;5029332;28;20707;-70
2023/12/07 03:48:32;;;;;;;11.57;9.33;;;1.60;99.90;;;;;;5032939;28;20240;-70
2023/12/07 03:50:58;;;;;;;12.73;9.67;;;1.70;99.90;;;;;;5030007;28;20491;-69
2023/12/07 03:53:23;;;;;;;8.60;7.77;;;1.60;99.90;;;;;;5033582;28;21016;-70
2023/12/07 03:55:49;;;;;;;17.13;10.60;;;1.60;99.90;;;;;;5033303;28;20185;-70
2023/12/07 03:58:14;;;;;;;11.57;9.10;;;1.70;99.90;;;;;;5035251;28;20186;-69
2023/12/07 04:00:40;;;;;;;14.80;8.57;;;1.70;99.90;;;;;;5037958;28;20178;-70
2023/12/07 04:03:05;;;;;;;9.83;8.63;;;1.60;99.90;;;;;;5033215;28;20209;-70
2023/12/07 04:05:31;;;;;;;11.13;8.50;;;1.60;99.90;;;;;;5025333;28;20183;-70
2023/12/07 04:07:57;;;;;;;10.50;8.43;;;1.60;99.90;;;;;;5031555;28;20190;-70
2023/12/07 04:10:22;;;;;;;9.00;7.90;;;1.60;99.90;;;;;;5025396;28;20266;-70
2023/12/07 04:12:48;;;;;;;11.40;9.10;;;1.60;99.90;;;;;;5031676;28;20198;-69
2023/12/07 04:15:14;;;;;;;11.00;9.63;;;1.50;99.90;;;;;;5038181;28;20202;-70
2023/12/07 04:17:39;;;;;;;13.57;9.47;;;1.50;99.90;;;;;;5040718;28;20197;-69
2023/12/07 04:20:05;;;;;;;11.47;9.87;;;1.40;99.90;;;;;;5032538;28;20556;-70
2023/12/07 04:22:31;;;;;;;12.10;9.50;;;1.40;99.90;;;;;;5032932;28;20185;-69
2023/12/07 04:24:57;;;;;;;12.30;9.20;;;1.40;99.90;;;;;;5032945;28;20436;-70
2023/12/07 04:27:22;;;;;;;12.07;8.90;;;1.40;99.90;;;;;;5031854;28;20183;-70
2023/12/07 04:29:48;;;;;;;12.50;10.13;;;1.40;99.90;;;;;;5033010;28;20212;-70
2023/12/07 04:32:13;;;;;;;11.00;8.70;;;1.40;99.90;;;;;;5025576;28;20242;-70
2023/12/07 04:34:39;;;;;;;10.47;8.43;;;1.30;99.90;;;;;;5031946;28;20213;-69
2023/12/07 04:37:04;;;;;;;14.73;9.83;;;1.30;99.90;;;;;;5029651;28;20231;-70
2023/12/07 04:39:30;;;;;;;15.63;9.57;;;1.20;99.90;;;;;;5032299;28;20596;-69
2023/12/07 04:41:55;;;;;;;10.73;8.90;;;1.20;99.90;;;;;;5030908;28;20189;-69
2023/12/07 04:44:21;;;;;;;11.90;9.30;;;1.10;99.90;;;;;;5037988;28;20190;-69
2023/12/07 04:46:46;;;;;;;13.33;9.77;;;1.10;99.90;;;;;;5030394;28;20200;-69
2023/12/07 04:49:12;;;;;;;13.93;10.43;;;1.10;99.90;;;;;;5032490;28;20257;-69
2023/12/07 04:51:37;;;;;;;11.23;9.93;;;1.10;99.90;;;;;;5032732;28;20174;-70
2023/12/07 04:54:03;;;;;;;14.40;10.67;;;1.00;99.90;;;;;;5032626;28;20186;-70
2023/12/07 04:56:28;;;;;;;13.20;10.20;;;1.00;99.90;;;;;;5032359;28;20170;-70
2023/12/07 04:58:54;;;;;;;12.83;9.73;;;1.00;99.90;;;;;;5016759;28;20187;-70
2023/12/07 05:01:19;;;;;;;11.50;9.10;;;1.00;99.90;;;;;;5028410;28;20182;-69
2023/12/07 05:03:45;;;;;;;13.57;8.57;;;1.00;99.90;;;;;;5028667;28;20656;-70
2023/12/07 05:06:11;;;;;;;12.80;8.93;;;1.00;99.90;;;;;;5027237;28;20190;-69
2023/12/07 05:08:39;;;;;;;12.37;9.23;;;1.00;99.90;;;;;;5033978;28;20173;-70
2023/12/07 05:11:06;;;;;;;11.40;9.30;;;1.00;99.90;;;;;;5052199;28;20420;-70
2023/12/07 05:13:33;;;;;;;14.40;10.50;;;0.90;99.90;;;;;;5036345;28;20471;-69
2023/12/07 05:15:59;;;;;;;13.50;9.80;;;0.90;99.90;;;;;;5032271;28;20413;-70
2023/12/07 05:18:25;;;;;;;12.73;9.83;;;0.90;99.90;;;;;;5029791;28;20433;-69
2023/12/07 05:20:50;;;;;;;16.80;10.17;;;0.90;99.90;;;;;;5031995;28;20431;-70
2023/12/07 05:23:17;;;;;;;14.30;11.80;;;0.80;99.90;;;;;;5031710;28;20667;-69
2023/12/07 05:25:43;;;;;;;13.03;10.33;;;0.80;99.90;;;;;;5032745;28;20531;-70
2023/12/07 05:28:08;;;;;;;16.83;11.00;;;0.90;99.90;;;;;;5027540;28;20464;-70
2023/12/07 05:30:36;;;;;;;12.50;11.10;;;0.90;99.90;;;;;;5037043;28;20303;-69
2023/12/07 05:33:02;;;;;;;15.70;11.70;;;0.90;99.90;;;;;;5038878;28;20544;-70
2023/12/07 05:35:28;;;;;;;16.60;11.77;;;0.80;99.90;;;;;;5032062;28;20420;-70
2023/12/07 05:37:53;;;;;;;14.87;11.83;;;0.80;99.90;;;;;;5031930;28;20417;-70
2023/12/07 05:40:19;;;;;;;17.87;9.87;;;0.80;99.90;;;;;;5016986;28;20175;-70
2023/12/07 05:42:49;;;;;;;12.37;11.07;;;0.80;99.90;;;;;;5018164;28;20602;-70
2023/12/07 05:45:14;;;;;;;16.83;11.17;;;0.80;99.90;;;;;;5032206;28;20178;-70
2023/12/07 05:47:40;;;;;;;17.97;11.03;;;0.80;99.90;;;;;;5029500;28;20441;-70
2023/12/07 05:50:06;;;;;;;13.23;10.03;;;0.80;99.90;;;;;;5016362;28;20191;-70
2023/12/07 05:52:32;;;;;;;14.07;10.60;;;0.70;99.90;;;;;;5046315;28;20629;-70
2023/12/07 05:54:57;;;;;;;13.30;9.83;;;0.70;99.90;;;;;;5028302;28;20488;-70
2023/12/07 05:57:23;;;;;;;14.47;10.33;;;0.70;99.90;;;;;;5012965;28;20193;-70
2023/12/07 05:59:48;;;;;;;13.70;9.70;;;0.60;99.90;;;;;;5030952;28;20253;-69
2023/12/07 06:02:14;;;;;;;14.70;9.77;;;0.60;99.90;;;;;;5024461;28;20666;-70
2023/12/07 06:04:40;;;;;;;16.87;11.97;;;0.60;99.90;;;;;;5019081;28;20213;-71
2023/12/07 06:07:05;;;;;;;15.80;10.93;;;0.60;99.90;;;;;;5029753;28;20174;-71
2023/12/07 06:09:31;;;;;;;13.77;10.30;;;0.60;99.90;;;;;;5031716;28;20424;-71
2023/12/07 06:11:57;;;;;;;12.13;10.27;;;0.50;99.90;;;;;;5030784;28;20189;-72
2023/12/07 06:14:25;;;;;;;12.13;10.17;;;0.50;99.90;;;;;;5032846;28;20189;-71
2023/12/07 06:16:51;;;;;;;16.80;10.27;;;0.60;99.90;;;;;;5028627;28;20185;-70
2023/12/07 06:19:16;;;;;;;15.23;11.90;;;0.60;99.90;;;;;;5036110;28;20421;-72
2023/12/07 06:21:44;;;;;;;15.33;11.10;;;0.60;99.90;;;;;;5044407;28;20177;-71
2023/12/07 06:24:09;;;;;;;15.60;11.17;;;0.60;99.90;;;;;;5031508;28;20186;-71
2023/12/07 06:26:35;;;;;;;15.43;11.43;;;0.60;99.90;;;;;;5030312;28;20519;-71
2023/12/07 06:29:01;;;;;;;16.27;10.73;;;0.50;99.90;;;;;;5039836;28;20167;-71
2023/12/07 06:31:26;;;;;;;14.20;10.30;;;0.50;99.90;;;;;;5027499;28;20829;-71
2023/12/07 06:33:52;;;;;;;12.60;10.57;;;0.40;99.90;;;;;;5022284;28;20199;-71
2023/12/07 06:36:19;;;;;;;13.67;9.33;;;0.40;99.90;;;;;;5023984;28;20202;-71
2023/12/07 06:38:45;;;;;;;13.23;10.10;;;0.40;99.90;;;;;;5034269;28;20257;-70
2023/12/07 06:41:10;;;;;;;16.10;10.73;;;0.50;99.90;;;;;;5041843;28;20516;-71
2023/12/07 06:43:36;;;;;;;14.83;11.40;;;0.50;99.90;;;;;;5040750;28;20193;-72
2023/12/07 06:46:01;;;;;;;15.90;11.27;;;0.40;99.90;;;;;;5036823;28;20530;-71
2023/12/07 06:48:27;;;;;;;17.70;11.50;;;0.40;99.90;;;;;;5032669;28;20193;-71
2023/12/07 06:50:52;;;;;;;14.60;10.73;;;0.40;99.90;;;;;;5037078;28;20190;-71
2023/12/07 06:53:18;;;;;;;14.77;10.27;;;0.40;99.90;;;;;;5036917;28;20553;-71
2023/12/07 06:55:44;;;;;;;15.17;11.90;;;0.50;99.90;;;;;;5043858;28;20254;-73
2023/12/07 06:58:09;;;;;;;13.50;10.37;;;0.40;99.90;;;;;;5032526;28;20178;-72
2023/12/07 07:00:36;;;;;;;14.73;11.07;;;0.40;99.90;;;;;;5037231;28;20166;-72
2023/12/07 07:03:01;;;;;;;14.40;9.27;;;0.40;99.90;;;;;;5033763;28;20752;-73
2023/12/07 07:05:27;;;;;;;18.67;10.60;;;0.40;99.90;;;;;;5030156;28;20441;-74
2023/12/07 07:07:53;;;;;;;14.27;12.10;;;0.50;99.90;;;;;;5040996;28;20546;-74
2023/12/07 07:10:18;;;;;;;12.43;9.30;;;0.50;99.90;;;;;;5054433;28;20181;-75
2023/12/07 07:12:44;;;;;;;16.97;12.40;;;0.50;99.90;;;;;;5023609;28;20218;-73
2023/12/07 07:15:09;;;;;;;20.20;13.57;;;0.50;99.90;;;;;;5014714;28;20190;-74
2023/12/07 07:17:35;;;;;;;17.97;12.53;;;0.50;99.90;;;;;;5014380;28;20182;-75
2023/12/07 07:20:01;;;;;;;15.90;10.93;;;0.50;99.90;;;;;;5026225;28;20178;-73
2023/12/07 07:22:26;;;;;;;16.43;12.27;;;0.60;99.90;;;;;;5034350;28;20174;-75
2023/12/07 07:24:52;;;;;;;27.77;16.77;;;0.50;99.90;;;;;;5034110;28;20229;-75
2023/12/07 07:27:17;;;;;;;22.80;14.77;;;0.50;99.90;;;;;;5015193;28;20185;-73
2023/12/07 07:29:44;;;;;;;18.47;11.80;;;0.50;99.90;;;;;;5014508;28;20175;-74
2023/12/07 07:32:10;;;;;;;12.90;11.50;;;0.50;99.90;;;;;;5014332;28;20195;-74
2023/12/07 07:34:35;;;;;;;17.67;11.97;;;0.40;99.90;;;;;;5019411;28;20441;-73
2023/12/07 07:37:01;;;;;;;15.77;12.07;;;0.50;99.90;;;;;;5032474;28;20425;-74
2023/12/07 07:39:27;;;;;;;14.67;11.73;;;0.60;99.90;;;;;;5033951;28;20218;-75
2023/12/07 07:41:52;;;;;;;15.83;12.03;;;0.70;99.90;;;;;;5032423;28;20484;-74
2023/12/07 07:44:18;;;;;;;14.90;12.10;;;1.00;99.90;;;;;;5014548;28;20245;-74
2023/12/07 07:46:43;;;;;;;13.00;11.40;;;1.70;99.90;;;;;;5029455;28;20197;-74
2023/12/07 07:49:09;;;;;;;17.70;13.20;;;2.80;99.90;;;;;;5031060;28;20206;-73
2023/12/07 07:51:34;;;;;;;13.80;10.43;;;3.50;99.90;;;;;;5033547;28;20181;-74
2023/12/07 07:54:00;;;;;;;11.27;10.07;;;4.60;99.90;;;;;;5033490;28;20213;-73
2023/12/07 07:56:26;;;;;;;13.50;9.00;;;5.40;99.90;;;;;;5033206;28;20170;-75
2023/12/07 07:58:51;;;;;;;12.67;11.17;;;6.30;99.90;;;;;;5032446;28;20681;-74
2023/12/07 08:01:17;;;;;;;21.57;17.17;;;6.90;99.90;;;;;;5033369;28;20203;-75
2023/12/07 08:03:42;;;;;;;13.47;11.70;;;7.60;99.90;;;;;;5033369;28;20236;-73
2023/12/07 08:06:08;;;;;;;12.07;10.77;;;8.00;99.90;;;;;;5033011;28;20197;-75
2023/12/07 08:08:34;;;;;;;12.50;11.00;;;8.40;99.90;;;;;;5032952;28;20269;-76
2023/12/07 08:11:00;;;;;;;14.20;11.03;;;7.00;99.90;;;;;;5033490;28;20174;-73
2023/12/07 08:13:27;;;;;;;12.00;10.77;;;7.10;99.90;;;;;;5033305;28;20290;-75
2023/12/07 08:15:53;;;;;;;17.53;15.57;;;7.70;99.90;;;;;;5030731;28;20487;-78
2023/12/07 08:18:21;;;;;;;15.27;11.53;;;8.40;99.90;;;;;;5028880;28;20421;-76
2023/12/07 08:20:46;;;;;;;13.77;12.00;;;9.50;99.90;;;;;;5029841;28;20217;-72
2023/12/07 08:23:12;;;;;;;14.83;11.67;;;10.40;99.90;;;;;;5032872;28;20950;-72
2023/12/07 08:25:40;;;;;;;11.37;10.37;;;11.90;99.90;;;;;;5032943;28;20162;-72
2023/12/07 08:28:09;;;;;;;12.53;11.33;;;13.00;99.50;;;;;;5032438;28;20170;-71
2023/12/07 08:30:34;;;;;;;11.93;10.80;;;14.00;93.80;;;;;;5012032;28;20413;-74
2023/12/07 08:33:00;;;;;;;13.63;12.30;;;14.70;90.20;;;;;;5012995;28;20973;-74
2023/12/07 08:35:25;;;;;;;13.17;11.87;;;15.40;81.80;;;;;;5014140;28;20185;-74
2023/12/07 08:37:51;;;;;;;11.50;10.53;;;15.90;77.40;;;;;;5012605;28;20171;-73
2023/12/07 08:40:17;;;;;;;11.80;10.70;;;15.80;71.10;;;;;;5013025;28;20174;-73
2023/12/07 08:42:46;;;;;;;13.30;11.77;;;16.30;69.00;;;;;;5011876;28;20313;-73
2023/12/07 08:45:13;;;;;;;15.57;14.03;;;16.90;67.70;;;;;;5014021;28;20292;-74
2023/12/07 08:47:39;;;;;;;15.93;13.70;;;16.80;63.10;;;;;;5012612;28;20426;-73
2023/12/07 08:50:05;;;;;;;12.57;10.97;;;16.70;61.60;;;;;;5013956;28;20425;-73
2023/12/07 08:52:32;;;;;;;13.03;11.90;;;16.70;61.10;;;;;;5012616;28;20222;-73
2023/12/07 08:54:58;;;;;;;14.10;12.80;;;16.90;60.10;;;;;;5027719;28;20921;-73
2023/12/07 08:57:23;;;;;;;12.97;11.70;;;17.30;59.00;;;;;;5032201;28;20709;-73
2023/12/07 08:59:49;;;;;;;10.77;9.67;;;17.50;58.00;;;;;;5032164;28;20197;-73
2023/12/07 09:02:14;;;;;;;11.43;10.20;;;17.80;55.20;;;;;;5032365;28;20214;-74
2023/12/07 09:04:40;;;;;;;11.57;10.47;;;18.30;53.80;;;;;;5030502;28;20201;-73
2023/12/07 09:07:05;;;;;;;10.90;10.10;;;18.70;51.60;;;;;;5031925;28;20188;-72
2023/12/07 09:09:31;;;;;;;13.00;11.90;;;19.40;50.90;;;;;;5026166;28;20706;-74
2023/12/07 09:11:57;;;;;;;11.23;10.23;;;20.10;48.70;;;;;;5018845;28;20179;-72
2023/12/07 09:14:22;;;;;;;10.73;9.70;;;20.30;46.50;;;;;;5029420;28;20867;-73
2023/12/07 09:16:48;;;;;;;11.80;10.80;;;19.90;46.40;;;;;;5031785;28;20181;-74
2023/12/07 09:19:14;;;;;;;11.17;10.23;;;19.80;45.90;;;;;;5021423;28;20608;-73
2023/12/07 09:21:40;;;;;;;11.10;10.10;;;19.50;46.40;;;;;;5012230;28;20277;-72
2023/12/07 09:24:06;;;;;;;10.57;9.70;;;19.20;46.70;;;;;;5011760;28;20198;-73
2023/12/07 09:26:32;;;;;;;9.07;8.30;;;19.40;46.10;;;;;;5012027;28;20992;-72
2023/12/07 09:28:58;;;;;;;9.60;8.70;;;19.60;45.30;;;;;;5012491;28;20179;-73
2023/12/07 09:31:27;;;;;;;8.30;7.57;;;20.30;43.70;;;;;;5012398;28;20421;-73
2023/12/07 09:33:53;;;;;;;7.83;7.13;;;20.00;41.20;;;;;;5013252;28;20626;-73
2023/12/07 09:36:21;;;;;;;7.33;6.63;;;17.00;43.50;;;;;;5012091;28;20903;-73
2023/12/07 09:38:46;;;;;;;7.70;7.10;;;16.40;46.50;;;;;;5012108;28;20432;-74
2023/12/07 09:41:12;;;;;;;8.63;7.83;;;16.30;47.50;;;;;;5012193;28;20508;-73
2023/12/07 09:43:38;;;;;;;9.00;8.20;;;15.20;48.60;;;;;;5012130;28;20198;-74
2023/12/07 09:46:05;;;;;;;8.87;8.07;;;14.30;51.00;;;;;;5012152;28;20995;-72
2023/12/07 09:48:31;;;;;;;8.40;7.60;;;13.20;54.40;;;;;;5022167;28;20185;-74
2023/12/07 09:50:59;;;;;;;9.00;7.60;;;13.20;56.30;;;;;;5031604;28;20429;-73
2023/12/07 09:53:29;;;;;;;7.87;7.17;;;13.50;56.30;;;;;;5031465;28;20514;-72
2023/12/07 09:55:54;;;;;;;8.50;7.80;;;14.50;54.60;;;;;;5031818;28;20421;-73
2023/12/07 09:58:20;;;;;;;14.07;8.17;;;15.00;54.50;;;;;;5031602;28;20429;-72
2023/12/07 10:00:47;;;;;;;9.23;8.53;;;17.10;51.10;;;;;;5031638;28;20174;-72
2023/12/07 10:03:23;;;;;;;10.10;9.23;;;18.00;47.80;;;;;;5029911;28;20197;-73
2023/12/07 10:05:57;;;;;;;12.03;7.63;;;19.30;46.00;;;;;;5031744;28;20420;-73
2023/12/07 10:08:35;;;;;;;8.67;8.00;;;19.40;44.00;;;;;;5031412;28;20499;-74
2023/12/07 10:11:09;;;;;;;8.00;7.30;;;20.20;43.10;;;;;;5032632;28;20842;-73
2023/12/07 10:13:36;;;;;;;9.50;7.90;;;19.70;41.50;;;;;;5035381;28;20464;-75
2023/12/07 10:16:16;;;;;;;8.93;8.13;;;18.00;44.20;;;;;;5034053;28;20847;-73
2023/12/07 10:18:42;;;;;;;9.70;7.40;;;18.10;42.90;;;;;;5035250;28;20425;-74
2023/12/07 10:21:09;;;;;;;9.60;8.70;;;17.30;43.70;;;;;;5035489;28;20508;-74
2023/12/07 10:23:38;;;;;;;8.57;7.77;;;17.40;44.90;;;;;;5035276;28;20440;-72
2023/12/07 10:26:05;;;;;;;9.60;7.63;;;18.10;43.70;;;;;;5035207;28;20427;-74
2023/12/07 10:28:33;;;;;;;9.77;8.30;;;17.50;44.00;;;;;;5035046;28;20425;-73
2023/12/07 10:30:59;;;;;;;10.27;7.73;;;17.10;44.30;;;;;;5033713;28;20468;-73
2023/12/07 10:33:26;;;;;;;9.60;7.90;;;16.70;45.30;;;;;;5035007;28;20910;-72
2023/12/07 10:35:51;;;;;;;8.20;7.50;;;16.70;45.60;;;;;;5035132;28;20173;-72
2023/12/07 10:38:18;;;;;;;8.40;7.70;;;18.40;44.30;;;;;;5033596;28;20910;-74
2023/12/07 10:40:45;;;;;;;9.63;8.73;;;19.10;42.10;;;;;;5035089;28;20261;-72
2023/12/07 10:43:12;;;;;;;8.80;8.00;;;20.80;40.70;;;;;;5035182;28;20456;-73
2023/12/07 10:45:41;;;;;;;7.83;7.20;;;21.20;38.90;;;;;;5024249;28;20791;-72
2023/12/07 10:48:08;;;;;;;8.50;7.90;;;21.10;37.70;;;;;;5014872;28;20501;-73
2023/12/07 10:50:43;;;;;;;10.17;9.17;;;18.90;39.60;;;;;;5015175;28;20449;-75
2023/12/07 10:53:11;;;;;;;10.63;9.07;;;18.30;41.10;;;;;;5014942;28;21040;-74
2023/12/07 10:55:48;;;;;;;9.40;8.50;;;19.70;40.40;;;;;;5015102;28;20417;-74
2023/12/07 10:58:16;;;;;;;9.57;7.10;;;20.20;38.10;;;;;;5014687;28;20425;-74
2023/12/07 11:00:48;;;;;;;8.60;7.90;;;21.90;37.60;;;;;;5016137;28;20534;-74
2023/12/07 11:03:17;;;;;;;7.97;7.33;;;21.00;38.60;;;;;;5014779;28;20500;-74
2023/12/07 11:05:45;;;;;;;8.57;7.63;;;21.30;39.00;;;;;;5014794;28;20520;-70
2023/12/07 11:08:36;;;;;;;7.30;6.53;;;23.00;38.30;;;;;;5014559;28;20537;-75
2023/12/07 11:11:07;;;;;;;7.30;6.70;;;23.20;36.20;;;;;;5025380;28;20471;-75
2023/12/07 11:13:37;;;;;;;6.67;6.07;;;22.70;36.50;;;;;;5033315;28;20526;-74
2023/12/07 11:16:03;;;;;;;6.57;5.87;;;22.60;36.30;;;;;;5013355;28;20426;-74
2023/12/07 11:18:29;;;;;;;6.63;6.23;;;22.40;34.60;;;;;;5014502;28;20452;-76
2023/12/07 11:20:56;;;;;;;7.37;6.67;;;23.60;35.00;;;;;;5014694;28;20425;-76
2023/12/07 11:23:22;;;;;;;6.87;6.20;;;24.20;33.90;;;;;;5014436;28;20445;-77
2023/12/07 11:25:50;;;;;;;6.27;5.77;;;24.30;32.50;;;;;;5014865;28;20552;-77
2023/12/07 11:28:15;;;;;;;6.93;5.93;;;23.60;32.00;;;;;;5020199;28;20432;-73
2023/12/07 11:30:43;;;;;;;5.67;5.27;;;23.10;31.70;;;;;;5033353;28;20451;-76
2023/12/07 11:33:11;;;;;;;7.20;4.60;;;23.40;32.50;;;;;;5031570;28;20703;-76
2023/12/07 11:36:02;;;;;;;5.23;4.87;;;23.10;32.00;;;;;;5031156;28;20775;-77
2023/12/07 11:38:27;;;;;;;4.83;4.43;;;23.80;31.10;;;;;;5032478;28;20910;-76
2023/12/07 11:40:55;;;;;;;5.57;5.07;;;23.30;29.80;;;;;;5033927;28;20452;-77
2023/12/07 11:43:33;;;;;;;7.60;5.17;;;20.10;33.20;;;;;;5025149;28;20208;-75
2023/12/07 11:45:59;;;;;;;5.23;4.77;;;20.60;33.30;;;;;;5030982;28;20559;-75
2023/12/07 11:48:25;;;;;;;6.07;5.57;;;19.30;33.60;;;;;;5033562;28;20947;-76
2023/12/07 11:50:58;;;;;;;5.93;5.30;;;20.00;34.40;;;;;;5033692;28;20499;-75
2023/12/07 11:53:24;;;;;;;6.20;5.70;;;21.80;32.50;;;;;;5033510;28;20212;-74
2023/12/07 11:55:51;;;;;;;6.10;5.50;;;22.60;31.40;;;;;;5033831;28;20421;-75
2023/12/07 11:58:16;;;;;;;5.90;5.40;;;23.10;30.50;;;;;;5021920;28;20437;-73
2023/12/07 12:00:43;;;;;;;6.33;5.80;;;23.60;30.10;;;;;;5022027;28;20422;-73
2023/12/07 12:03:13;;;;;;;6.13;5.63;;;23.60;29.70;;;;;;5031450;28;20198;-72
2023/12/07 12:05:40;;;;;;;5.80;5.40;;;21.40;31.10;;;;;;5033688;28;21131;-73
2023/12/07 12:08:06;;;;;;;7.03;6.20;;;22.30;32.30;;;;;;5033045;28;20425;-72
2023/12/07 12:10:31;;;;;;;6.07;5.57;;;22.10;32.10;;;;;;5033433;28;20421;-71
2023/12/07 12:13:00;;;;;;;5.60;5.20;;;20.90;31.50;;;;;;5030940;28;20479;-71
2023/12/07 12:15:26;;;;;;;5.97;5.37;;;19.20;33.30;;;;;;5031424;28;20181;-72
2023/12/07 12:17:52;;;;;;;7.00;6.13;;;16.70;35.10;;;;;;5031622;28;20531;-72
2023/12/07 12:20:19;;;;;;;7.50;6.90;;;14.70;37.40;;;;;;5031524;28;20186;-72
2023/12/07 12:22:44;;;;;;;7.67;6.90;;;15.20;38.00;;;;;;5030207;28;20440;-72
2023/12/07 12:25:10;;;;;;;6.17;5.67;;;16.20;37.40;;;;;;5031249;28;20851;-72
2023/12/07 12:27:36;;;;;;;6.37;5.77;;;17.00;35.20;;;;;;5030564;28;20197;-72
2023/12/07 12:30:03;;;;;;;6.50;5.90;;;17.40;34.50;;;;;;5031524;28;20624;-71
2023/12/07 12:32:42;;;;;;;6.40;5.90;;;18.50;33.30;;;;;;5029691;28;20321;-71
2023/12/07 12:35:08;;;;;;;6.07;5.40;;;19.10;32.10;;;;;;5045685;28;20822;-73
2023/12/07 12:37:34;;;;;;;6.07;5.27;;;19.40;32.50;;;;;;5030904;28;20459;-73
2023/12/07 12:40:08;;;;;;;5.67;5.17;;;18.60;32.00;;;;;;5031340;28;20425;-71